Time;durP1;ratioP1;P1;durP2;ratioP2;P2;SDS_P1;SDS_P2;PMS_P1;PMS_P2;Temp;Humidity;BMP_temperature;BMP_pressure;BME280_temperature;BME280_humidity;BME280_pressure;Samples;Min_cycle;Max_cycle;Signal;HPM_P1;HPM_P2
2024/04/22 00:01:56;;;;;;;;;6.25;5.00;;;;;6.95;64.59;101949.38;5463501;26;43984;-62
2024/04/22 00:04:21;;;;;;;;;11.25;8.00;;;;;6.88;64.06;101936.31;5441050;25;66945;-62
2024/04/22 00:06:46;;;;;;;;;12.00;7.00;;;;;6.88;65.02;101941.53;5428891;26;71882;-61
2024/04/22 00:09:13;;;;;;;;;7.25;6.50;;;;;6.87;65.08;101950.19;5444118;26;74420;-62
2024/04/22 00:11:38;;;;;;;;;8.00;7.00;;;;;6.84;64.18;101943.22;5463444;26;44394;-61
2024/04/22 00:14:04;;;;;;;;;7.25;7.00;;;;;6.83;64.72;101946.69;5444208;25;43989;-61
2024/04/22 00:16:29;;;;;;;;;7.25;7.00;;;;;6.82;65.69;101939.75;5441528;26;58170;-61
2024/04/22 00:18:54;;;;;;;;;7.00;7.00;;;;;6.81;65.46;101943.19;5461242;25;74126;-61
2024/04/22 00:21:20;;;;;;;;;13.25;9.00;;;;;6.81;64.90;101943.19;5439840;26;55328;-61
2024/04/22 00:23:45;;;;;;;;;10.00;8.00;;;;;6.81;65.16;101945.81;5460485;26;66423;-61
2024/04/22 00:26:10;;;;;;;;;10.00;8.00;;;;;6.78;66.54;101938.84;5439348;26;71582;-62
2024/04/22 00:28:36;;;;;;;;;9.50;7.25;;;;;6.77;66.86;101942.31;5459457;26;64863;-60
2024/04/22 00:31:01;;;;;;;;;11.25;9.00;;;;;6.78;66.52;101943.16;5449050;25;43941;-59
2024/04/22 00:33:26;;;;;;;;;16.25;13.00;;;;;6.77;66.58;101938.84;5463324;25;43999;-59
2024/04/22 00:35:56;;;;;;;;;8.25;8.25;;;;;6.74;67.13;101941.41;5434426;26;72073;-58
2024/04/22 00:38:21;;;;;;;;;4.50;1.50;;;;;6.74;67.38;101938.81;5454449;26;45747;-59
2024/04/22 00:40:46;;;;;;;;;13.25;8.25;;;;;6.69;67.50;101937.91;5450040;26;57543;-62
2024/04/22 00:43:12;;;;;;;;;11.75;8.50;;;;;6.68;67.34;101930.97;5462883;25;68142;-62
2024/04/22 00:45:37;;;;;;;;;9.00;8.00;;;;;6.69;66.30;101927.50;5459575;26;73961;-62
2024/04/22 00:48:03;;;;;;;;;6.50;6.00;;;;;6.73;67.55;101934.44;5452640;25;75174;-61
2024/04/22 00:50:29;;;;;;;;;19.00;15.75;;;;;6.76;66.99;101931.88;5431942;25;48082;-62
2024/04/22 00:52:55;;;;;;;;;11.50;9.00;;;;;6.78;67.35;101932.75;5462276;26;46407;-62
2024/04/22 00:55:21;;;;;;;;;10.25;8.00;;;;;6.80;67.03;101938.88;5462145;25;66995;-62
2024/04/22 00:57:46;;;;;;;;;9.75;8.00;;;;;6.79;67.31;101940.59;5444712;26;65180;-62
2024/04/22 01:00:12;;;;;;;;;9.25;6.00;;;;;6.79;67.50;101935.38;5456879;25;72096;-61
2024/04/22 01:02:37;;;;;;;;;12.50;9.00;;;;;6.77;67.90;101938.84;5458949;26;43817;-61
2024/04/22 01:05:03;;;;;;;;;13.50;8.75;;;;;6.75;67.98;101936.22;5461343;26;70829;-63
2024/04/22 01:07:29;;;;;;;;;10.25;8.50;;;;;6.71;67.35;101933.56;5458661;25;43992;-62
2024/04/22 01:09:54;;;;;;;;;8.50;6.25;;;;;6.68;67.20;101939.63;5453992;26;43914;-62
2024/04/22 01:12:20;;;;;;;;;9.25;8.00;;;;;6.67;67.71;101937.88;5453540;26;43885;-61
2024/04/22 01:14:45;;;;;;;;;9.00;7.00;;;;;6.63;68.00;101944.78;5453544;26;62084;-62
2024/04/22 01:17:11;;;;;;;;;8.00;8.00;;;;;6.61;67.86;101943.03;5450705;26;72682;-62
2024/04/22 01:19:36;;;;;;;;;12.25;9.25;;;;;6.61;67.69;101935.25;5461368;26;72064;-62
2024/04/22 01:22:01;;;;;;;;;14.00;10.25;;;;;6.57;68.60;101930.84;5442100;26;69309;-62
2024/04/22 01:24:27;;;;;;;;;12.00;9.00;;;;;6.57;68.21;101936.06;5449017;26;44240;-63
2024/04/22 01:26:53;;;;;;;;;13.00;9.50;;;;;6.53;68.28;101931.69;5450366;25;72221;-62
2024/04/22 01:29:18;;;;;;;;;11.25;9.00;;;;;6.46;69.51;101931.66;5459768;26;71985;-61
2024/04/22 01:31:43;;;;;;;;;14.00;9.75;;;;;6.47;68.44;101933.38;5458583;26;49780;-61
2024/04/22 01:34:09;;;;;;;;;17.50;11.50;;;;;6.44;68.31;101930.72;5436623;25;68984;-61
2024/04/22 01:36:40;;;;;;;;;15.75;8.75;;;;;6.39;69.07;101922.03;5464945;25;43869;-61
2024/04/22 01:39:08;;;;;;;;;12.75;10.00;;;;;6.38;69.03;101920.28;5453594;26;43903;-61
2024/04/22 01:41:33;;;;;;;;;11.00;9.00;;;;;6.37;68.92;101928.06;5462164;26;43916;-62
2024/04/22 01:43:58;;;;;;;;;15.50;12.00;;;;;6.37;68.93;101921.13;5453471;25;70851;-62
2024/04/22 01:46:24;;;;;;;;;12.25;11.00;;;;;6.36;69.12;101924.63;5456293;26;74881;-59
2024/04/22 01:48:49;;;;;;;;;14.25;10.00;;;;;6.34;69.65;101923.72;5444849;26;69001;-60
2024/04/22 01:51:14;;;;;;;;;7.00;6.00;;;;;6.32;70.00;101919.34;5459735;26;59708;-60
2024/04/22 01:53:40;;;;;;;;;11.75;8.25;;;;;6.31;70.20;101923.69;5454163;25;46473;-60
2024/04/22 01:56:05;;;;;;;;;14.25;11.00;;;;;6.27;69.59;101921.94;5448742;26;74821;-61
2024/04/22 01:58:30;;;;;;;;;14.00;10.00;;;;;6.29;70.43;101924.53;5430278;26;43864;-62
2024/04/22 02:01:03;;;;;;;;;17.50;12.75;;;;;6.25;70.09;101919.31;5442188;25;70503;-61
2024/04/22 02:03:28;;;;;;;;;17.75;13.25;;;;;6.24;70.81;101922.75;5441348;25;43810;-62
2024/04/22 02:05:53;;;;;;;;;14.00;9.25;;;;;6.22;69.99;101911.47;5459043;26;75080;-61
2024/04/22 02:08:19;;;;;;;;;13.00;11.75;;;;;6.19;70.28;101903.63;5456378;25;71829;-61
2024/04/22 02:10:44;;;;;;;;;16.75;12.75;;;;;6.18;70.95;101899.31;5444365;26;68073;-61
2024/04/22 02:13:09;;;;;;;;;16.50;12.25;;;;;6.16;70.12;101897.53;5443086;25;44063;-63
2024/04/22 02:15:35;;;;;;;;;15.00;12.00;;;;;6.16;70.31;101894.94;5439847;26;66666;-62
2024/04/22 02:18:00;;;;;;;;;17.75;11.50;;;;;6.13;70.64;101894.94;5455566;25;70810;-62
2024/04/22 02:20:25;;;;;;;;;17.00;13.00;;;;;6.08;71.43;101892.28;5456555;26;43732;-62
2024/04/22 02:22:51;;;;;;;;;16.75;12.00;;;;;6.05;71.78;101894.84;5443974;26;44016;-60
2024/04/22 02:25:16;;;;;;;;;15.75;11.00;;;;;6.03;71.64;101894.81;5448960;26;73117;-61
2024/04/22 02:27:41;;;;;;;;;18.00;12.75;;;;;6.03;70.86;101888.75;5439149;26;70807;-59
2024/04/22 02:30:07;;;;;;;;;13.50;11.50;;;;;6.00;71.79;101887.00;5465130;26;65371;-60
2024/04/22 02:32:34;;;;;;;;;9.50;9.25;;;;;6.01;71.42;101895.66;5433921;26;44080;-63
2024/04/22 02:34:59;;;;;;;;;16.00;11.00;;;;;5.98;71.53;101898.22;5456093;26;45697;-60
2024/04/22 02:37:24;;;;;;;;;16.25;12.50;;;;;5.98;71.66;101893.03;5435213;26;43918;-60
2024/04/22 02:39:50;;;;;;;;;24.25;17.50;;;;;5.95;71.96;101892.94;5444214;26;58338;-61
2024/04/22 02:42:15;;;;;;;;;14.00;9.00;;;;;5.95;72.58;101888.66;5466155;26;71999;-60
2024/04/22 02:44:40;;;;;;;;;16.50;12.75;;;;;5.93;73.45;101890.34;5462060;26;48510;-59
2024/04/22 02:47:06;;;;;;;;;13.25;12.25;;;;;5.90;72.63;101893.78;5456761;26;48886;-60
2024/04/22 02:49:31;;;;;;;;;14.25;12.25;;;;;5.89;73.41;101894.63;5438400;26;68334;-58
2024/04/22 02:51:57;;;;;;;;;16.50;13.50;;;;;5.90;73.08;101898.13;5464848;26;43925;-57
2024/04/22 02:54:27;;;;;;;;;15.50;12.00;;;;;5.89;72.84;101904.16;5454497;25;75293;-58
2024/04/22 02:56:56;;;;;;;;;18.50;13.00;;;;;5.89;73.17;101901.56;5446175;26;43995;-58
2024/04/22 02:59:21;;;;;;;;;18.75;11.75;;;;;5.89;73.02;101904.16;5467423;25;43945;-58
2024/04/22 03:01:51;;;;;;;;;19.25;15.50;;;;;5.89;74.12;101907.63;5442903;26;43858;-60
2024/04/22 03:04:17;;;;;;;;;6.50;5.50;;;;;5.88;73.25;101907.63;5435176;26;44160;-60
2024/04/22 03:06:42;;;;;;;;;15.00;12.25;;;;;5.88;73.40;101908.50;5442692;25;63795;-61
2024/04/22 03:09:07;;;;;;;;;12.00;11.75;;;;;5.86;73.92;101915.41;5464562;26;53766;-61
2024/04/22 03:11:33;;;;;;;;;13.50;8.25;;;;;5.85;73.52;101911.03;5440637;26;72899;-61
2024/04/22 03:13:58;;;;;;;;;18.00;9.75;;;;;5.83;73.50;101914.50;5429436;26;75106;-61
2024/04/22 03:16:23;;;;;;;;;11.25;9.00;;;;;5.79;74.44;101902.31;5449445;26;43806;-60
2024/04/22 03:18:49;;;;;;;;;17.75;10.50;;;;;5.77;73.24;101912.69;5444382;25;58916;-61
2024/04/22 03:21:14;;;;;;;;;15.75;9.25;;;;;5.69;74.37;101901.34;5430668;26;52286;-60
2024/04/22 03:23:39;;;;;;;;;15.50;10.75;;;;;5.68;74.74;101904.78;5439590;26;66384;-60
2024/04/22 03:26:05;;;;;;;;;19.50;13.25;;;;;5.65;74.53;101899.56;5440286;26;57177;-61
2024/04/22 03:28:30;;;;;;;;;13.75;12.75;;;;;5.60;74.31;101899.50;5443745;26;65922;-61
2024/04/22 03:30:55;;;;;;;;;13.25;11.00;;;;;5.58;75.51;101898.63;5434008;26;70719;-60
2024/04/22 03:33:21;;;;;;;;;14.75;12.75;;;;;5.53;75.21;101892.47;5455225;26;52537;-60
2024/04/22 03:35:46;;;;;;;;;13.25;12.25;;;;;5.54;75.54;101891.63;5438554;25;70723;-59
2024/04/22 03:38:12;;;;;;;;;19.50;13.25;;;;;5.57;75.12;101894.25;5447738;26;43938;-60
2024/04/22 03:40:38;;;;;;;;;19.50;11.25;;;;;5.58;75.72;101895.13;5452187;26;43751;-59
2024/04/22 03:43:03;;;;;;;;;23.00;14.75;;;;;5.57;76.23;101896.84;5443905;25;73179;-58
2024/04/22 03:45:29;;;;;;;;;11.75;9.00;;;;;5.56;76.13;101897.72;5455576;26;52252;-59
2024/04/22 03:50:40;;;;;;;;;28.25;21.00;;;;;5.54;75.75;101903.72;5434551;26;43791;-58
2024/04/22 03:53:07;;;;;;;;;22.00;17.00;;;;;5.54;76.69;101898.53;5426320;26;45573;-59
2024/04/22 03:55:33;;;;;;;;;21.50;14.75;;;;;5.51;76.82;101905.44;5465906;25;43851;-58
2024/04/22 03:57:58;;;;;;;;;17.50;13.75;;;;;5.51;76.90;101904.59;5450913;26;43907;-60
2024/04/22 04:00:23;;;;;;;;;22.75;13.00;;;;;5.50;76.60;101911.47;5471499;25;71484;-59
2024/04/22 04:02:49;;;;;;;;;20.50;16.25;;;;;5.50;76.11;101921.00;5443921;26;74219;-59
2024/04/22 04:05:14;;;;;;;;;19.00;15.75;;;;;5.51;76.69;101912.38;5463792;26;72101;-61
2024/04/22 04:07:39;;;;;;;;;18.75;18.75;;;;;5.52;77.73;101911.50;5466542;25;44277;-64
2024/04/22 04:10:05;;;;;;;;;21.00;11.00;;;;;5.53;77.01;101908.06;5457896;26;71781;-60
2024/04/22 04:12:31;;;;;;;;;20.75;13.00;;;;;5.55;76.81;101908.09;5463517;26;44646;-60
2024/04/22 04:14:56;;;;;;;;;16.75;14.00;;;;;5.53;76.44;101902.00;5429824;26;70449;-60
2024/04/22 04:17:22;;;;;;;;;18.75;12.50;;;;;5.55;77.18;101908.94;5427787;26;43913;-60
2024/04/22 04:19:47;;;;;;;;;16.25;8.00;;;;;5.55;76.74;101905.50;5459093;26;43720;-60
2024/04/22 04:22:12;;;;;;;;;14.75;11.00;;;;;5.57;76.10;101914.16;5442616;26;44722;-61
2024/04/22 04:24:38;;;;;;;;;19.50;12.00;;;;;5.55;75.63;101901.16;5460312;26;66193;-60
2024/04/22 04:27:03;;;;;;;;;13.75;11.00;;;;;5.54;75.62;101904.59;5459693;26;65698;-60
2024/04/22 04:29:29;;;;;;;;;16.25;12.00;;;;;5.54;75.56;101901.13;5439714;26;44132;-59
2024/04/22 04:31:54;;;;;;;;;18.25;11.75;;;;;5.52;75.46;101903.72;5459357;26;56762;-60
2024/04/22 04:34:19;;;;;;;;;13.75;8.75;;;;;5.51;76.24;101912.38;5449955;26;58968;-60
2024/04/22 04:36:45;;;;;;;;;15.50;9.75;;;;;5.49;75.65;101904.56;5442173;26;66605;-61
2024/04/22 04:39:10;;;;;;;;;12.50;11.75;;;;;5.50;75.83;101908.03;5429620;26;44068;-60
2024/04/22 04:41:35;;;;;;;;;13.50;12.00;;;;;5.50;77.00;101911.47;5456401;26;45957;-59
2024/04/22 04:44:01;;;;;;;;;23.00;14.25;;;;;5.52;76.52;101911.50;5440652;26;73570;-59
2024/04/22 04:46:26;;;;;;;;;15.25;13.75;;;;;5.51;76.75;101909.78;5462764;26;66899;-59
2024/04/22 04:48:51;;;;;;;;;12.75;10.50;;;;;5.49;76.51;101907.16;5455311;25;71686;-58
2024/04/22 04:51:17;;;;;;;;;32.25;21.75;;;;;5.49;75.83;101906.28;5464863;26;50563;-59
2024/04/22 04:53:42;;;;;;;;;19.50;13.00;;;;;5.49;77.12;101914.94;5466073;25;44015;-60
2024/04/22 04:56:07;;;;;;;;;17.75;13.25;;;;;5.47;76.64;101907.97;5473219;25;55286;-60
2024/04/22 04:58:33;;;;;;;;;21.50;17.25;;;;;5.47;75.85;101921.84;5459116;26;68463;-60
2024/04/22 05:00:58;;;;;;;;;21.25;14.25;;;;;5.47;76.72;101926.16;5462905;25;62261;-60
2024/04/22 05:03:23;;;;;;;;;18.75;12.00;;;;;5.44;76.23;101932.19;5454561;26;62761;-59
2024/04/22 05:06:01;;;;;;;;;25.00;17.25;;;;;5.43;75.85;101930.41;5444841;25;54752;-61
2024/04/22 05:08:27;;;;;;;;;18.25;15.25;;;;;5.43;76.91;101930.41;5463652;25;44264;-60
2024/04/22 05:10:53;;;;;;;;;25.25;21.00;;;;;5.44;76.51;101934.78;5453404;25;48118;-60
2024/04/22 05:13:18;;;;;;;;;17.25;11.75;;;;;5.45;76.12;101935.63;5459603;25;43975;-59
2024/04/22 05:15:43;;;;;;;;;20.75;16.50;;;;;5.44;76.84;101921.78;5463374;25;65493;-61
2024/04/22 05:18:09;;;;;;;;;27.75;22.25;;;;;5.48;77.06;101922.72;5463115;26;43857;-59
2024/04/22 05:20:34;;;;;;;;;26.25;16.75;;;;;5.52;77.62;101921.88;5459919;26;59840;-61
2024/04/22 05:22:59;;;;;;;;;22.75;16.00;;;;;5.52;76.66;101919.28;5457468;25;44030;-59
2024/04/22 05:25:25;;;;;;;;;23.00;15.50;;;;;5.55;76.96;101921.94;5461141;25;67566;-60
2024/04/22 05:27:50;;;;;;;;;25.50;17.75;;;;;5.57;77.02;101916.75;5459003;25;43865;-60
2024/04/22 05:30:16;;;;;;;;;22.50;16.50;;;;;5.59;76.21;101909.84;5450443;25;72455;-58
2024/04/22 05:32:41;;;;;;;;;24.50;17.25;;;;;5.64;76.47;101914.25;5451168;26;43748;-61
2024/04/22 05:37:50;;;;;;;;;20.25;17.50;;;;;5.69;76.34;101912.59;5439825;26;43982;-67
2024/04/22 05:40:15;;;;;;;;;20.75;16.75;;;;;5.70;76.38;101913.44;5451294;26;50174;-58
2024/04/22 05:42:41;;;;;;;;;18.50;17.00;;;;;5.70;76.49;101922.13;5450010;25;70741;-58
2024/04/22 05:45:06;;;;;;;;;18.00;16.75;;;;;5.72;76.14;101924.75;5463343;25;43825;-64
2024/04/22 05:47:31;;;;;;;;;19.75;18.00;;;;;5.79;76.12;101933.47;5458040;25;43634;-53
2024/04/22 05:49:57;;;;;;;;;29.50;17.00;;;;;5.83;76.19;101943.94;5441999;26;59437;-54
2024/04/22 05:52:22;;;;;;;;;21.25;17.25;;;;;5.84;75.12;101945.69;5431124;26;58769;-57
2024/04/22 05:54:47;;;;;;;;;21.25;15.50;;;;;5.87;76.45;101940.50;5430950;26;69226;-53
2024/04/22 05:57:13;;;;;;;;;20.00;17.00;;;;;5.89;74.93;101940.53;5460711;25;63932;-52
2024/04/22 05:59:38;;;;;;;;;18.75;17.00;;;;;5.90;75.12;101948.34;5441004;26;75248;-54
2024/04/22 06:02:03;;;;;;;;;25.00;18.50;;;;;5.89;74.91;101943.13;5445097;25;71683;-54
2024/04/22 06:04:31;;;;;;;;;26.25;19.00;;;;;5.88;76.02;101944.84;5440559;26;68259;-52
2024/04/22 06:06:56;;;;;;;;;22.75;17.00;;;;;5.87;75.45;101953.50;5448548;26;44506;-56
2024/04/22 06:09:22;;;;;;;;;18.25;16.75;;;;;5.89;76.07;101950.91;5461249;26;56196;-58
2024/04/22 06:11:48;;;;;;;;;25.25;18.25;;;;;5.95;75.81;101960.50;5450578;26;44003;-63
2024/04/22 06:14:14;;;;;;;;;23.00;19.00;;;;;5.96;75.67;101955.38;5460918;26;43650;-59
2024/04/22 06:16:39;;;;;;;;;21.75;18.50;;;;;5.98;74.41;101956.25;5477803;25;71447;-60
2024/04/22 06:19:04;;;;;;;;;22.00;17.75;;;;;5.96;74.09;101946.72;5433869;26;43955;-52
2024/04/22 06:21:30;;;;;;;;;24.50;18.75;;;;;5.99;75.12;101957.16;5443482;26;67648;-53
2024/04/22 06:23:55;;;;;;;;;31.25;19.00;;;;;5.99;75.25;101960.59;5466779;25;56710;-55
2024/04/22 06:26:20;;;;;;;;;24.50;20.75;;;;;6.01;74.44;101948.50;5443207;25;72922;-55
2024/04/22 06:28:46;;;;;;;;;24.75;18.50;;;;;6.04;74.70;101945.06;5449408;25;43910;-56
2024/04/22 06:31:11;;;;;;;;;29.75;21.25;;;;;6.11;74.57;101949.50;5430635;26;70723;-57
2024/04/22 06:33:40;;;;;;;;;23.75;20.00;;;;;6.18;75.12;101948.69;5434046;26;43791;-58
2024/04/22 06:36:06;;;;;;;;;22.25;17.25;;;;;6.25;74.87;101944.41;5439822;25;44084;-57
2024/04/22 06:38:32;;;;;;;;;31.50;17.75;;;;;6.30;74.48;101936.66;5435898;26;44868;-54
2024/04/22 06:40:57;;;;;;;;;30.25;22.00;;;;;6.37;73.55;101944.53;5455487;26;66405;-57
2024/04/22 06:43:22;;;;;;;;;22.25;15.25;;;;;6.39;74.21;101948.06;5457465;25;62227;-56
2024/04/22 06:45:49;;;;;;;;;23.50;20.25;;;;;6.40;74.11;101946.31;5442800;25;43863;-59
2024/04/22 06:48:14;;;;;;;;;27.00;21.75;;;;;6.38;74.17;101948.03;5439220;26;44962;-56
2024/04/22 06:50:42;;;;;;;;;22.25;19.50;;;;;6.37;73.22;101939.34;5447503;25;43893;-55
2024/04/22 06:53:07;;;;;;;;;37.25;22.50;;;;;6.41;73.53;101948.94;5442404;26;44080;-57
2024/04/22 06:55:32;;;;;;;;;23.25;17.50;;;;;6.45;73.53;101952.44;5456531;25;69917;-59
2024/04/22 06:57:57;;;;;;;;;24.50;19.25;;;;;6.58;73.53;101956.88;5442066;26;72190;-58
2024/04/22 07:00:23;;;;;;;;;18.50;17.00;;;;;6.72;72.52;101961.34;5432321;26;43939;-61
2024/04/22 07:02:48;;;;;;;;;23.25;18.75;;;;;6.85;73.51;101960.56;5445725;26;44061;-58
2024/04/22 07:05:14;;;;;;;;;24.00;21.00;;;;;6.91;72.30;101954.56;5443919;25;44084;-57
2024/04/22 07:07:39;;;;;;;;;19.75;19.50;;;;;6.96;71.89;101955.47;5445730;25;44732;-60
2024/04/22 07:10:05;;;;;;;;;24.50;18.75;;;;;6.96;72.32;101952.88;5463945;25;43851;-58
2024/04/22 07:12:31;;;;;;;;;24.75;18.25;;;;;6.95;71.57;101954.59;5459865;26;44298;-57
2024/04/22 07:14:56;;;;;;;;;25.00;20.00;;;;;6.91;72.22;101950.22;5447333;26;44382;-55
2024/04/22 07:17:21;;;;;;;;;25.00;20.50;;;;;6.87;71.29;101944.97;5448663;25;45225;-56
2024/04/22 07:19:49;;;;;;;;;29.50;18.00;;;;;6.84;71.00;101948.44;5457141;26;67936;-57
2024/04/22 07:22:15;;;;;;;;;13.50;13.50;;;;;6.84;72.49;101941.50;5461383;25;43923;-57
2024/04/22 07:24:40;;;;;;;;;27.50;21.25;;;;;6.90;72.11;101945.00;5430275;26;43954;-58
2024/04/22 07:27:06;;;;;;;;;26.25;19.00;;;;;6.93;72.40;101939.84;5459584;26;72947;-57
2024/04/22 07:29:32;;;;;;;;;26.25;23.25;;;;;6.96;70.83;101953.75;5443539;26;44374;-57
2024/04/22 07:31:58;;;;;;;;;19.50;16.25;;;;;6.97;71.29;101959.81;5458857;25;44079;-57
2024/04/22 07:34:24;;;;;;;;;20.75;19.75;;;;;7.00;71.13;101955.50;5453528;25;44199;-55
2024/04/22 07:37:09;;;;;;;;;24.50;20.25;;;;;7.04;70.23;101952.03;5446900;25;44960;-58
2024/04/22 07:39:35;;;;;;;;;34.50;20.25;;;;;7.10;70.98;101951.25;5423056;25;1018159;-58
2024/04/22 07:42:00;;;;;;;;;27.00;22.00;;;;;7.16;70.17;101955.63;5453166;26;43929;-58
2024/04/22 07:44:26;;;;;;;;;23.50;19.00;;;;;7.16;70.16;101956.47;5448671;26;43981;-58
2024/04/22 07:46:52;;;;;;;;;25.00;20.00;;;;;7.14;70.91;101955.59;5428471;26;44129;-58
2024/04/22 07:49:17;;;;;;;;;24.25;19.00;;;;;7.15;70.42;101959.97;5457492;26;43768;-57
2024/04/22 07:51:42;;;;;;;;;23.00;17.75;;;;;7.13;69.87;101948.63;5464367;25;67019;-55
2024/04/22 07:54:08;;;;;;;;;19.50;16.00;;;;;7.14;69.11;101957.34;5446183;25;64105;-55
2024/04/22 07:56:34;;;;;;;;;29.00;15.00;;;;;7.14;70.28;101954.75;5436347;25;43934;-55
2024/04/22 07:59:00;;;;;;;;;24.75;21.00;;;;;7.16;70.13;101961.69;5439516;26;44001;-53
2024/04/22 08:01:25;;;;;;;;;19.50;18.75;;;;;7.20;70.00;101946.94;5451291;26;44047;-55
2024/04/22 08:03:51;;;;;;;;;25.00;20.00;;;;;7.23;68.92;101960.88;5446420;25;44085;-56
2024/04/22 08:06:19;;;;;;;;;17.50;12.00;;;;;7.27;69.21;101953.94;5433848;26;46681;-57
2024/04/22 08:08:44;;;;;;;;;23.00;19.75;;;;;7.34;69.65;101960.06;5442595;25;46461;-58
2024/04/22 08:11:10;;;;;;;;;29.00;20.50;;;;;7.44;68.46;101955.75;5442049;26;43883;-57
2024/04/22 08:13:35;;;;;;;;;23.75;19.25;;;;;7.54;68.93;101953.25;5428912;26;67269;-56
2024/04/22 08:16:00;;;;;;;;;18.75;17.75;;;;;7.71;68.18;101947.25;5451069;26;68109;-56
2024/04/22 08:18:26;;;;;;;;;28.00;21.50;;;;;7.81;68.75;101943.81;5439504;25;72181;-57
2024/04/22 08:20:51;;;;;;;;;19.75;16.00;;;;;7.93;68.15;101935.16;5430362;26;44605;-57
2024/04/22 08:23:17;;;;;;;;;21.00;19.00;;;;;8.03;67.36;101955.16;5398312;26;52235;-57
2024/04/22 08:25:42;;;;;;;;;23.75;20.00;;;;;8.11;67.34;101948.25;5430257;26;43899;-57
2024/04/22 08:28:08;;;;;;;;;26.75;17.25;;;;;8.19;68.11;101935.22;5441931;26;44907;-51
2024/04/22 08:30:33;;;;;;;;;14.00;10.50;;;;;8.30;66.51;101950.91;5438803;26;44195;-57
2024/04/22 08:33:00;;;;;;;;;26.00;17.75;;;;;8.39;66.48;101944.81;5455091;26;43839;-57
2024/04/22 08:35:25;;;;;;;;;25.25;18.00;;;;;8.48;65.93;101948.38;5463917;25;44782;-55
2024/04/22 08:37:50;;;;;;;;;19.50;13.25;;;;;8.59;66.26;101947.47;5464272;26;43910;-57
2024/04/22 08:40:16;;;;;;;;;22.50;18.25;;;;;8.65;64.93;101948.38;5464637;25;67767;-57
2024/04/22 08:42:41;;;;;;;;;21.75;15.00;;;;;8.70;65.29;101945.75;5459107;25;65245;-56
2024/04/22 08:45:07;;;;;;;;;17.75;14.75;;;;;8.79;65.33;101943.16;5431659;25;72106;-57
2024/04/22 08:47:32;;;;;;;;;20.75;16.25;;;;;8.89;65.48;101954.47;5436909;26;44220;-56
2024/04/22 08:49:58;;;;;;;;;22.25;16.25;;;;;8.93;64.87;101954.44;5461260;25;43898;-57
2024/04/22 08:52:24;;;;;;;;;23.00;17.00;;;;;8.98;64.10;101950.97;5438599;26;44037;-56
2024/04/22 08:54:49;;;;;;;;;21.00;18.00;;;;;8.96;63.02;101947.47;5459725;26;74081;-57
2024/04/22 08:57:15;;;;;;;;;18.75;17.00;;;;;8.97;63.16;101944.00;5456555;26;43917;-54
2024/04/22 08:59:40;;;;;;;;;25.25;19.25;;;;;9.02;63.62;101943.13;5439324;25;43810;-54
2024/04/22 09:02:06;;;;;;;;;18.25;15.00;;;;;9.05;62.81;101953.59;5464950;25;44072;-56
2024/04/22 09:04:31;;;;;;;;;22.50;17.50;;;;;9.06;61.32;101944.00;5448309;26;47079;-57
2024/04/22 09:06:56;;;;;;;;;15.75;14.50;;;;;9.06;62.30;101938.78;5460621;26;71556;-56
2024/04/22 09:09:22;;;;;;;;;18.50;16.00;;;;;9.13;61.48;101933.53;5457733;25;64614;-55
2024/04/22 09:11:54;;;;;;;;;19.50;16.50;;;;;9.27;61.04;101937.88;5453650;26;43912;-56
2024/04/22 09:14:19;;;;;;;;;18.75;17.25;;;;;9.39;61.33;101932.63;5464943;25;64698;-56
2024/04/22 09:16:45;;;;;;;;;21.00;16.00;;;;;9.56;61.15;101934.31;5465650;25;43753;-55
2024/04/22 09:19:19;;;;;;;;;15.50;14.25;;;;;9.77;60.04;101928.13;5455146;26;43857;-55
2024/04/22 09:21:45;;;;;;;;;20.50;15.25;;;;;10.01;59.75;101916.69;5462150;25;44019;-55
2024/04/22 09:24:11;;;;;;;;;6.75;6.00;;;;;10.26;59.69;101922.63;5461615;26;64679;-56
2024/04/22 09:26:37;;;;;;;;;19.75;14.50;;;;;10.48;59.53;101922.50;5444066;25;44371;-56
2024/04/22 09:29:03;;;;;;;;;24.50;21.25;;;;;10.57;58.87;101925.03;5456609;26;69105;-57
2024/04/22 09:31:29;;;;;;;;;17.25;15.25;;;;;10.60;58.56;101925.88;5449895;26;43791;-55
2024/04/22 09:33:56;;;;;;;;;29.50;18.25;;;;;10.51;58.07;101918.13;5465377;25;45729;-54
2024/04/22 09:36:22;;;;;;;;;20.25;19.25;;;;;10.38;58.25;101921.72;5428702;26;44426;-58
2024/04/22 09:38:50;;;;;;;;;20.75;16.75;;;;;10.19;57.97;101916.56;5428845;26;43893;-56
2024/04/22 09:41:18;;;;;;;;;20.25;18.00;;;;;10.00;57.15;101912.31;5437997;26;43823;-56
2024/04/22 09:43:43;;;;;;;;;22.50;16.75;;;;;9.84;57.71;101915.03;5428490;26;43870;-56
2024/04/22 09:46:10;;;;;;;;;19.75;17.00;;;;;9.76;58.27;101916.81;5432948;26;44068;-56
2024/04/22 09:48:36;;;;;;;;;22.50;18.00;;;;;9.87;58.33;101914.13;5446935;25;43840;-55
2024/04/22 09:51:02;;;;;;;;;18.75;17.50;;;;;10.15;58.19;101912.22;5452193;26;72141;-57
2024/04/22 09:53:28;;;;;;;;;27.50;18.50;;;;;10.35;56.74;101899.03;5437731;26;44850;-57
2024/04/22 09:56:02;;;;;;;;;17.25;11.50;;;;;10.45;56.41;101897.25;5462365;26;44015;-56
2024/04/22 09:58:30;;;;;;;;;14.25;12.50;;;;;10.64;56.05;101892.69;5460736;25;43975;-58
2024/04/22 10:00:55;;;;;;;;;16.50;14.50;;;;;10.82;55.38;101894.31;5461783;25;44087;-51
2024/04/22 10:03:20;;;;;;;;;13.00;9.25;;;;;10.86;54.94;101888.16;5456446;26;75389;-52
2024/04/22 10:05:46;;;;;;;;;14.00;12.50;;;;;10.82;54.29;101883.84;5444780;26;63018;-60
2024/04/22 10:08:11;;;;;;;;;13.50;10.00;;;;;10.81;53.81;101885.56;5435248;25;69240;-50
2024/04/22 10:10:40;;;;;;;;;11.50;10.00;;;;;10.81;52.70;101882.09;5434585;26;43811;-59
2024/04/22 10:13:10;;;;;;;;;18.00;12.00;;;;;10.82;52.29;101889.94;5428211;26;44958;-59
2024/04/22 10:15:36;;;;;;;;;12.00;8.25;;;;;10.88;52.73;101877.66;5459710;26;43789;-52
2024/04/22 10:18:12;;;;;;;;;13.50;11.75;;;;;10.91;52.33;101881.13;5461674;25;44008;-55
2024/04/22 10:20:40;;;;;;;;;11.75;11.00;;;;;10.87;52.48;101881.16;5428205;26;44002;-51
2024/04/22 10:23:06;;;;;;;;;11.50;8.75;;;;;10.84;51.65;101884.69;5436169;26;44162;-52
2024/04/22 10:25:31;;;;;;;;;9.75;7.25;;;;;10.80;51.10;101882.97;5464697;25;43718;-49
2024/04/22 10:27:57;;;;;;;;;6.00;4.75;;;;;10.80;50.53;101869.88;5462418;26;44338;-57
2024/04/22 10:30:32;;;;;;;;;3.50;3.00;;;;;10.96;50.25;101883.69;5463777;25;70485;-58
2024/04/22 10:32:57;;;;;;;;;9.25;6.00;;;;;11.04;49.36;101867.91;5404062;26;44784;-55
2024/04/22 10:35:23;;;;;;;;;11.00;7.75;;;;;11.10;49.16;101865.19;5428425;26;72964;-61
2024/04/22 10:37:48;;;;;;;;;7.75;6.25;;;;;11.16;49.30;101858.16;5431436;26;43809;-60
2024/04/22 10:40:13;;;;;;;;;12.25;9.00;;;;;11.22;48.97;101859.81;5430461;26;59308;-57
2024/04/22 10:42:39;;;;;;;;;8.25;7.00;;;;;11.24;48.67;101862.44;5457549;25;48158;-56
2024/04/22 10:45:05;;;;;;;;;7.25;7.25;;;;;11.20;48.54;101861.59;5441166;26;65386;-58
2024/04/22 10:47:30;;;;;;;;;11.00;10.75;;;;;11.14;48.95;101864.31;5449488;26;43750;-57
2024/04/22 10:49:55;;;;;;;;;16.00;14.00;;;;;11.17;48.04;101857.28;5432097;25;43937;-58
2024/04/22 10:52:23;;;;;;;;;15.50;13.00;;;;;11.17;48.15;101853.75;5431030;26;47036;-59
2024/04/22 10:54:48;;;;;;;;;13.75;11.75;;;;;11.14;47.70;101852.06;5431243;26;43765;-58
2024/04/22 10:57:14;;;;;;;;;10.50;10.50;;;;;11.08;47.79;101856.50;5440966;26;50887;-57
2024/04/22 10:59:39;;;;;;;;;5.50;5.00;;;;;11.03;48.00;101851.31;5458832;25;64015;-58
2024/04/22 11:02:06;;;;;;;;;8.50;8.00;;;;;11.15;47.53;101851.16;5466414;25;67420;-58
2024/04/22 11:04:32;;;;;;;;;5.25;4.75;;;;;11.33;47.81;101844.84;5467749;25;43804;-57
2024/04/22 11:06:57;;;;;;;;;10.50;7.00;;;;;11.58;47.65;101839.31;5465592;26;44006;-56
2024/04/22 11:09:22;;;;;;;;;10.75;9.75;;;;;11.78;46.81;101832.00;5458812;25;69403;-62
2024/04/22 11:11:48;;;;;;;;;12.50;8.25;;;;;11.89;47.54;101833.63;5445025;26;68304;-58
2024/04/22 11:14:14;;;;;;;;;6.75;5.50;;;;;11.94;47.50;101826.56;5455109;26;67434;-57
2024/04/22 11:16:39;;;;;;;;;9.25;7.50;;;;;12.00;46.67;101836.97;5453292;26;44021;-57
2024/04/22 11:19:06;;;;;;;;;5.25;4.00;;;;;11.94;44.21;101834.44;5467153;26;46209;-58